sensor_id;sensor_type;location;lat;lon;timestamp;pressure;altitude;pressure_sealevel;temperature;humidity
4528;BME280;62320;51.520;6.818;2023-07-29T00:09:50;100310.31;;;19.80;100.00
4528;BME280;62320;51.520;6.818;2023-07-29T00:19:51;100306.47;;;19.68;100.00
4528;BME280;62320;51.520;6.818;2023-07-29T00:29:53;100285.56;;;19.67;100.00
4528;BME280;62320;51.520;6.818;2023-07-29T00:39:54;100284.78;;;19.65;100.00
4528;BME280;62320;51.520;6.818;2023-07-29T00:49:56;100284.13;;;19.60;100.00
4528;BME280;62320;51.520;6.818;2023-07-29T00:59:58;100279.59;;;19.63;100.00
4528;BME280;62320;51.520;6.818;2023-07-29T01:20:24;100268.97;;;19.66;100.00
4528;BME280;62320;51.520;6.818;2023-07-29T01:30:33;100246.06;;;19.70;100.00
4528;BME280;62320;51.520;6.818;2023-07-29T01:40:39;100248.75;;;19.68;100.00
4528;BME280;62320;51.520;6.818;2023-07-29T01:50:41;100249.53;;;19.70;100.00
4528;BME280;62320;51.520;6.818;2023-07-29T02:00:43;100242.38;;;19.74;100.00
4528;BME280;62320;51.520;6.818;2023-07-29T02:10:44;100219.03;;;19.68;100.00
4528;BME280;62320;51.520;6.818;2023-07-29T02:20:46;100224.06;;;19.72;100.00
4528;BME280;62320;51.520;6.818;2023-07-29T02:31:16;100225.63;;;19.76;100.00
4528;BME280;62320;51.520;6.818;2023-07-29T02:41:18;100232.59;;;19.77;100.00
4528;BME280;62320;51.520;6.818;2023-07-29T02:51:19;100220.25;;;19.79;100.00
4528;BME280;62320;51.520;6.818;2023-07-29T03:01:21;100230.88;;;19.76;100.00
4528;BME280;62320;51.520;6.818;2023-07-29T03:11:22;100217.50;;;19.82;100.00
4528;BME280;62320;51.520;6.818;2023-07-29T03:21:24;100234.88;;;19.85;100.00
4528;BME280;62320;51.520;6.818;2023-07-29T03:31:25;100214.78;;;19.84;100.00
4528;BME280;62320;51.520;6.818;2023-07-29T03:41:27;100207.69;;;19.86;100.00
4528;BME280;62320;51.520;6.818;2023-07-29T03:51:28;100207.06;;;19.81;100.00
4528;BME280;62320;51.520;6.818;2023-07-29T04:01:30;100227.44;;;19.76;100.00
4528;BME280;62320;51.520;6.818;2023-07-29T04:11:32;100215.84;;;19.61;100.00
4528;BME280;62320;51.520;6.818;2023-07-29T04:21:33;100205.78;;;19.52;100.00
4528;BME280;62320;51.520;6.818;2023-07-29T04:31:35;100232.34;;;19.45;100.00
4528;BME280;62320;51.520;6.818;2023-07-29T04:41:36;100250.00;;;19.41;100.00
4528;BME280;62320;51.520;6.818;2023-07-29T04:51:38;100275.56;;;19.36;100.00
4528;BME280;62320;51.520;6.818;2023-07-29T05:01:39;100249.13;;;19.20;99.78
4528;BME280;62320;51.520;6.818;2023-07-29T05:11:42;100206.88;;;19.08;99.50
4528;BME280;62320;51.520;6.818;2023-07-29T05:21:44;100224.50;;;19.04;99.19
4528;BME280;62320;51.520;6.818;2023-07-29T05:31:46;100262.25;;;19.00;97.83
4528;BME280;62320;51.520;6.818;2023-07-29T05:41:48;100274.56;;;18.98;97.51
4528;BME280;62320;51.520;6.818;2023-07-29T05:51:49;100275.34;;;19.00;96.81
4528;BME280;62320;51.520;6.818;2023-07-29T06:01:53;100291.19;;;18.97;96.39
4528;BME280;62320;51.520;6.818;2023-07-29T06:11:54;100306.03;;;18.97;95.94
4528;BME280;62320;51.520;6.818;2023-07-29T06:21:56;100326.03;;;18.99;95.78
4528;BME280;62320;51.520;6.818;2023-07-29T06:31:58;100318.97;;;19.01;94.39
4528;BME280;62320;51.520;6.818;2023-07-29T06:41:59;100322.97;;;19.10;94.48
4528;BME280;62320;51.520;6.818;2023-07-29T06:52:01;100340.88;;;19.20;94.82
4528;BME280;62320;51.520;6.818;2023-07-29T07:02:03;100325.19;;;19.41;94.46
4528;BME280;62320;51.520;6.818;2023-07-29T07:12:05;100322.34;;;19.65;93.81
4528;BME280;62320;51.520;6.818;2023-07-29T07:22:06;100331.19;;;20.20;93.26
4528;BME280;62320;51.520;6.818;2023-07-29T07:32:08;100336.03;;;20.48;91.89
4528;BME280;62320;51.520;6.818;2023-07-29T07:42:10;100335.25;;;20.65;92.05
4528;BME280;62320;51.520;6.818;2023-07-29T07:52:11;100334.03;;;20.89;89.68
4528;BME280;62320;51.520;6.818;2023-07-29T08:02:13;100326.75;;;21.29;89.59
4528;BME280;62320;51.520;6.818;2023-07-29T08:12:14;100333.97;;;21.76;89.13
4528;BME280;62320;51.520;6.818;2023-07-29T08:22:20;100331.94;;;22.14;87.85
4528;BME280;62320;51.520;6.818;2023-07-29T08:32:21;100346.13;;;22.27;85.63
4528;BME280;62320;51.520;6.818;2023-07-29T08:42:24;100333.91;;;22.57;85.19
4528;BME280;62320;51.520;6.818;2023-07-29T08:52:30;100323.09;;;22.93;83.28
4528;BME280;62320;51.520;6.818;2023-07-29T09:02:33;100323.47;;;23.16;84.79
4528;BME280;62320;51.520;6.818;2023-07-29T09:12:35;100346.03;;;23.06;81.29
4528;BME280;62320;51.520;6.818;2023-07-29T09:22:36;100345.84;;;23.09;84.56
4528;BME280;62320;51.520;6.818;2023-07-29T09:32:39;100347.50;;;22.96;82.45
4528;BME280;62320;51.520;6.818;2023-07-29T09:42:47;100361.72;;;22.94;83.29
4528;BME280;62320;51.520;6.818;2023-07-29T09:52:51;100354.56;;;22.96;83.01
4528;BME280;62320;51.520;6.818;2023-07-29T10:02:52;100351.56;;;23.02;83.47
4528;BME280;62320;51.520;6.818;2023-07-29T10:12:54;100335.97;;;23.13;83.29
4528;BME280;62320;51.520;6.818;2023-07-29T10:22:59;100324.44;;;23.29;80.64
4528;BME280;62320;51.520;6.818;2023-07-29T10:33:03;100339.00;;;23.36;80.84
4528;BME280;62320;51.520;6.818;2023-07-29T10:43:10;100341.34;;;23.41;80.53
4528;BME280;62320;51.520;6.818;2023-07-29T10:53:12;100329.03;;;23.42;81.03
4528;BME280;62320;51.520;6.818;2023-07-29T11:03:14;100315.06;;;23.54;78.83
4528;BME280;62320;51.520;6.818;2023-07-29T11:13:18;100315.63;;;23.45;77.21
4528;BME280;62320;51.520;6.818;2023-07-29T11:23:20;100318.75;;;23.37;79.55
4528;BME280;62320;51.520;6.818;2023-07-29T11:33:24;100327.50;;;23.52;79.80
4528;BME280;62320;51.520;6.818;2023-07-29T11:43:26;100315.91;;;23.54;80.72
4528;BME280;62320;51.520;6.818;2023-07-29T11:53:29;100305.56;;;23.79;77.57
4528;BME280;62320;51.520;6.818;2023-07-29T12:03:32;100300.84;;;23.84;79.79
4528;BME280;62320;51.520;6.818;2023-07-29T12:13:36;100303.84;;;23.92;77.20
4528;BME280;62320;51.520;6.818;2023-07-29T12:23:37;100297.19;;;24.01;75.84
4528;BME280;62320;51.520;6.818;2023-07-29T12:33:39;100311.63;;;24.09;76.96
4528;BME280;62320;51.520;6.818;2023-07-29T12:43:43;100317.16;;;24.05;74.09
4528;BME280;62320;51.520;6.818;2023-07-29T12:53:45;100301.13;;;24.08;77.08
4528;BME280;62320;51.520;6.818;2023-07-29T13:03:47;100300.38;;;24.06;74.03
4528;BME280;62320;51.520;6.818;2023-07-29T13:13:50;100301.69;;;24.27;73.90
4528;BME280;62320;51.520;6.818;2023-07-29T13:23:52;100302.44;;;24.15;75.68
4528;BME280;62320;51.520;6.818;2023-07-29T13:33:53;100304.53;;;23.96;76.03
4528;BME280;62320;51.520;6.818;2023-07-29T13:43:55;100332.94;;;23.78;79.03
4528;BME280;62320;51.520;6.818;2023-07-29T13:53:56;100408.97;;;23.28;84.82
4528;BME280;62320;51.520;6.818;2023-07-29T14:03:58;100405.34;;;21.53;87.26
4528;BME280;62320;51.520;6.818;2023-07-29T14:13:59;100436.44;;;21.45;86.29
4528;BME280;62320;51.520;6.818;2023-07-29T14:24:01;100396.88;;;20.39;92.54
4528;BME280;62320;51.520;6.818;2023-07-29T14:34:02;100395.16;;;20.38;92.49
4528;BME280;62320;51.520;6.818;2023-07-29T14:44:04;100372.13;;;20.26;96.48
4528;BME280;62320;51.520;6.818;2023-07-29T14:54:05;100375.69;;;20.60;100.00
4528;BME280;62320;51.520;6.818;2023-07-29T15:04:07;100374.91;;;20.77;96.80
4528;BME280;62320;51.520;6.818;2023-07-29T15:14:09;100377.19;;;20.85;99.50
4528;BME280;62320;51.520;6.818;2023-07-29T15:24:10;100373.16;;;20.95;99.60
4528;BME280;62320;51.520;6.818;2023-07-29T15:34:12;100357.28;;;21.15;100.00
4528;BME280;62320;51.520;6.818;2023-07-29T15:44:13;100351.97;;;21.33;100.00
4528;BME280;62320;51.520;6.818;2023-07-29T15:54:15;100334.47;;;21.50;100.00
4528;BME280;62320;51.520;6.818;2023-07-29T16:04:17;100344.28;;;21.63;99.62
4528;BME280;62320;51.520;6.818;2023-07-29T16:14:18;100344.50;;;21.76;99.09
4528;BME280;62320;51.520;6.818;2023-07-29T16:24:21;100335.53;;;21.63;96.15
4528;BME280;62320;51.520;6.818;2023-07-29T16:34:22;100344.03;;;21.68;94.04
4528;BME280;62320;51.520;6.818;2023-07-29T16:44:24;100340.63;;;21.66;95.65
4528;BME280;62320;51.520;6.818;2023-07-29T16:54:25;100326.47;;;21.68;95.21
4528;BME280;62320;51.520;6.818;2023-07-29T17:04:27;100314.59;;;21.77;95.59
4528;BME280;62320;51.520;6.818;2023-07-29T17:14:28;100327.09;;;21.73;95.54
4528;BME280;62320;51.520;6.818;2023-07-29T17:24:30;100337.25;;;21.64;94.63
4528;BME280;62320;51.520;6.818;2023-07-29T17:34:32;100332.84;;;21.64;95.00
4528;BME280;62320;51.520;6.818;2023-07-29T17:44:33;100327.09;;;21.56;98.37
4528;BME280;62320;51.520;6.818;2023-07-29T17:54:35;100315.66;;;21.40;100.00
4528;BME280;62320;51.520;6.818;2023-07-29T18:04:38;100316.75;;;21.36;100.00
4528;BME280;62320;51.520;6.818;2023-07-29T18:14:40;100338.66;;;21.37;100.00
4528;BME280;62320;51.520;6.818;2023-07-29T18:24:43;100335.41;;;21.31;100.00
4528;BME280;62320;51.520;6.818;2023-07-29T18:34:44;100354.91;;;21.27;100.00
4528;BME280;62320;51.520;6.818;2023-07-29T18:44:46;100357.50;;;21.10;100.00
4528;BME280;62320;51.520;6.818;2023-07-29T18:54:47;100368.88;;;21.11;100.00
4528;BME280;62320;51.520;6.818;2023-07-29T19:04:49;100373.88;;;20.98;100.00
4528;BME280;62320;51.520;6.818;2023-07-29T19:14:50;100371.19;;;20.81;100.00
4528;BME280;62320;51.520;6.818;2023-07-29T19:24:52;100389.34;;;20.69;100.00
4528;BME280;62320;51.520;6.818;2023-07-29T19:34:53;100402.56;;;20.48;100.00
4528;BME280;62320;51.520;6.818;2023-07-29T19:44:56;100401.69;;;20.29;100.00
4528;BME280;62320;51.520;6.818;2023-07-29T19:54:57;100394.69;;;20.10;100.00
4528;BME280;62320;51.520;6.818;2023-07-29T20:04:59;100398.84;;;19.95;100.00
4528;BME280;62320;51.520;6.818;2023-07-29T20:15:01;100393.53;;;19.76;100.00
4528;BME280;62320;51.520;6.818;2023-07-29T20:25:04;100386.53;;;19.57;100.00
4528;BME280;62320;51.520;6.818;2023-07-29T20:35:06;100368.56;;;19.48;100.00
4528;BME280;62320;51.520;6.818;2023-07-29T20:45:08;100391.94;;;19.32;100.00
4528;BME280;62320;51.520;6.818;2023-07-29T20:55:10;100383.69;;;19.21;100.00
4528;BME280;62320;51.520;6.818;2023-07-29T21:05:11;100390.34;;;19.08;100.00
4528;BME280;62320;51.520;6.818;2023-07-29T21:15:13;100392.28;;;19.03;100.00
4528;BME280;62320;51.520;6.818;2023-07-29T21:25:14;100414.34;;;18.97;99.60
4528;BME280;62320;51.520;6.818;2023-07-29T21:35:16;100418.84;;;18.94;98.82
4528;BME280;62320;51.520;6.818;2023-07-29T21:45:18;100421.31;;;18.98;97.32
4528;BME280;62320;51.520;6.818;2023-07-29T21:55:20;100430.25;;;18.93;99.44
4528;BME280;62320;51.520;6.818;2023-07-29T22:05:21;100432.31;;;18.85;98.37
4528;BME280;62320;51.520;6.818;2023-07-29T22:15:23;100443.88;;;18.79;97.18
4528;BME280;62320;51.520;6.818;2023-07-29T22:25:24;100452.50;;;18.60;99.33
4528;BME280;62320;51.520;6.818;2023-07-29T22:35:27;100470.50;;;18.45;98.88
4528;BME280;62320;51.520;6.818;2023-07-29T22:45:28;100484.91;;;18.32;98.73
4528;BME280;62320;51.520;6.818;2023-07-29T22:55:30;100496.13;;;18.11;97.30
4528;BME280;62320;51.520;6.818;2023-07-29T23:05:31;100506.34;;;18.19;94.41
4528;BME280;62320;51.520;6.818;2023-07-29T23:15:37;100502.22;;;18.12;93.19
4528;BME280;62320;51.520;6.818;2023-07-29T23:25:39;100516.69;;;17.97;93.48
4528;BME280;62320;51.520;6.818;2023-07-29T23:35:40;100496.44;;;17.77;94.07
4528;BME280;62320;51.520;6.818;2023-07-29T23:45:42;100515.00;;;17.70;93.93
4528;BME280;62320;51.520;6.818;2023-07-29T23:55:43;100507.72;;;17.53;93.43
